sensor_id;sensor_type;location;lat;lon;timestamp;P1;durP1;ratioP1;P2;durP2;ratioP2
59109;SDS011;44895;47.438;18.978;2023-08-06T00:02:20;11.35;;;5.70;;
59109;SDS011;44895;47.438;18.978;2023-08-06T00:05:24;13.05;;;5.78;;
59109;SDS011;44895;47.438;18.978;2023-08-06T00:08:27;14.13;;;6.60;;
59109;SDS011;44895;47.438;18.978;2023-08-06T00:11:31;9.18;;;5.95;;
59109;SDS011;44895;47.438;18.978;2023-08-06T00:14:35;13.38;;;5.57;;
59109;SDS011;44895;47.438;18.978;2023-08-06T00:17:38;11.80;;;6.75;;
59109;SDS011;44895;47.438;18.978;2023-08-06T00:20:42;8.90;;;5.95;;
59109;SDS011;44895;47.438;18.978;2023-08-06T00:23:46;10.68;;;7.53;;
59109;SDS011;44895;47.438;18.978;2023-08-06T00:26:50;10.52;;;6.32;;
59109;SDS011;44895;47.438;18.978;2023-08-06T00:29:53;10.73;;;5.97;;
59109;SDS011;44895;47.438;18.978;2023-08-06T00:32:57;10.85;;;7.00;;
59109;SDS011;44895;47.438;18.978;2023-08-06T00:36:01;13.50;;;7.57;;
59109;SDS011;44895;47.438;18.978;2023-08-06T00:39:05;10.68;;;7.65;;
59109;SDS011;44895;47.438;18.978;2023-08-06T00:42:10;9.98;;;6.93;;
59109;SDS011;44895;47.438;18.978;2023-08-06T00:45:15;11.15;;;8.75;;
59109;SDS011;44895;47.438;18.978;2023-08-06T00:48:18;16.95;;;10.18;;
59109;SDS011;44895;47.438;18.978;2023-08-06T00:51:23;12.18;;;8.57;;
59109;SDS011;44895;47.438;18.978;2023-08-06T00:54:28;12.18;;;8.02;;
59109;SDS011;44895;47.438;18.978;2023-08-06T00:57:32;13.20;;;7.70;;
59109;SDS011;44895;47.438;18.978;2023-08-06T01:00:36;10.73;;;7.43;;
59109;SDS011;44895;47.438;18.978;2023-08-06T01:03:41;10.75;;;8.07;;
59109;SDS011;44895;47.438;18.978;2023-08-06T01:13:43;18.58;;;8.25;;
59109;SDS011;44895;47.438;18.978;2023-08-06T01:16:50;13.82;;;7.53;;
59109;SDS011;44895;47.438;18.978;2023-08-06T01:19:54;12.98;;;8.82;;
59109;SDS011;44895;47.438;18.978;2023-08-06T01:22:58;12.75;;;7.85;;
59109;SDS011;44895;47.438;18.978;2023-08-06T01:32:22;12.73;;;8.35;;
59109;SDS011;44895;47.438;18.978;2023-08-06T01:35:28;15.82;;;7.20;;
59109;SDS011;44895;47.438;18.978;2023-08-06T01:41:39;9.75;;;5.88;;
59109;SDS011;44895;47.438;18.978;2023-08-06T01:44:43;11.98;;;7.00;;
59109;SDS011;44895;47.438;18.978;2023-08-06T01:47:46;10.25;;;5.93;;
59109;SDS011;44895;47.438;18.978;2023-08-06T01:50:50;9.35;;;5.55;;
59109;SDS011;44895;47.438;18.978;2023-08-06T01:53:53;12.32;;;6.80;;
59109;SDS011;44895;47.438;18.978;2023-08-06T01:56:57;12.25;;;7.00;;
59109;SDS011;44895;47.438;18.978;2023-08-06T02:00:02;9.13;;;5.13;;
59109;SDS011;44895;47.438;18.978;2023-08-06T02:03:16;8.27;;;4.90;;
59109;SDS011;44895;47.438;18.978;2023-08-06T02:06:20;9.25;;;5.32;;
59109;SDS011;44895;47.438;18.978;2023-08-06T02:09:24;8.23;;;4.97;;
59109;SDS011;44895;47.438;18.978;2023-08-06T02:12:28;8.60;;;4.95;;
59109;SDS011;44895;47.438;18.978;2023-08-06T02:15:32;13.18;;;5.85;;
59109;SDS011;44895;47.438;18.978;2023-08-06T02:18:36;9.38;;;4.72;;
59109;SDS011;44895;47.438;18.978;2023-08-06T02:21:40;8.70;;;5.28;;
59109;SDS011;44895;47.438;18.978;2023-08-06T02:24:43;7.47;;;4.00;;
59109;SDS011;44895;47.438;18.978;2023-08-06T02:27:47;8.60;;;4.20;;
59109;SDS011;44895;47.438;18.978;2023-08-06T02:30:51;8.32;;;4.53;;
59109;SDS011;44895;47.438;18.978;2023-08-06T02:33:55;8.52;;;4.88;;
59109;SDS011;44895;47.438;18.978;2023-08-06T02:36:59;7.70;;;4.25;;
59109;SDS011;44895;47.438;18.978;2023-08-06T02:40:03;8.52;;;4.68;;
59109;SDS011;44895;47.438;18.978;2023-08-06T02:43:07;8.50;;;5.35;;
59109;SDS011;44895;47.438;18.978;2023-08-06T02:46:11;14.07;;;4.70;;
59109;SDS011;44895;47.438;18.978;2023-08-06T02:49:15;8.13;;;4.65;;
59109;SDS011;44895;47.438;18.978;2023-08-06T02:52:18;8.30;;;4.60;;
59109;SDS011;44895;47.438;18.978;2023-08-06T02:55:23;13.15;;;3.83;;
59109;SDS011;44895;47.438;18.978;2023-08-06T02:58:27;9.70;;;5.63;;
59109;SDS011;44895;47.438;18.978;2023-08-06T03:01:43;7.10;;;3.58;;
59109;SDS011;44895;47.438;18.978;2023-08-06T03:04:55;7.15;;;3.58;;
59109;SDS011;44895;47.438;18.978;2023-08-06T03:08:01;7.07;;;3.97;;
59109;SDS011;44895;47.438;18.978;2023-08-06T03:11:07;6.30;;;3.20;;
59109;SDS011;44895;47.438;18.978;2023-08-06T03:14:11;7.25;;;3.58;;
59109;SDS011;44895;47.438;18.978;2023-08-06T03:17:16;7.13;;;3.38;;
59109;SDS011;44895;47.438;18.978;2023-08-06T03:20:20;8.98;;;3.53;;
59109;SDS011;44895;47.438;18.978;2023-08-06T03:23:24;7.55;;;3.85;;
59109;SDS011;44895;47.438;18.978;2023-08-06T03:26:28;8.20;;;3.28;;
59109;SDS011;44895;47.438;18.978;2023-08-06T03:29:32;9.32;;;4.68;;
59109;SDS011;44895;47.438;18.978;2023-08-06T03:32:38;11.65;;;3.85;;
59109;SDS011;44895;47.438;18.978;2023-08-06T03:35:42;9.10;;;3.88;;
59109;SDS011;44895;47.438;18.978;2023-08-06T03:38:47;6.97;;;3.83;;
59109;SDS011;44895;47.438;18.978;2023-08-06T03:41:52;7.10;;;4.35;;
59109;SDS011;44895;47.438;18.978;2023-08-06T03:44:55;15.35;;;4.75;;
59109;SDS011;44895;47.438;18.978;2023-08-06T03:47:59;11.75;;;4.20;;
59109;SDS011;44895;47.438;18.978;2023-08-06T03:51:03;10.18;;;3.78;;
59109;SDS011;44895;47.438;18.978;2023-08-06T03:54:07;7.22;;;4.00;;
59109;SDS011;44895;47.438;18.978;2023-08-06T03:57:11;13.85;;;4.78;;
59109;SDS011;44895;47.438;18.978;2023-08-06T04:00:15;7.57;;;4.05;;
59109;SDS011;44895;47.438;18.978;2023-08-06T04:03:19;8.00;;;4.38;;
59109;SDS011;44895;47.438;18.978;2023-08-06T04:06:23;9.02;;;4.15;;
59109;SDS011;44895;47.438;18.978;2023-08-06T04:09:28;7.68;;;4.30;;
59109;SDS011;44895;47.438;18.978;2023-08-06T04:12:32;7.32;;;4.18;;
59109;SDS011;44895;47.438;18.978;2023-08-06T04:18:43;10.15;;;4.43;;
59109;SDS011;44895;47.438;18.978;2023-08-06T04:21:50;10.00;;;4.13;;
59109;SDS011;44895;47.438;18.978;2023-08-06T04:24:53;8.80;;;4.85;;
59109;SDS011;44895;47.438;18.978;2023-08-06T04:27:57;8.35;;;4.10;;
59109;SDS011;44895;47.438;18.978;2023-08-06T04:31:01;9.07;;;4.40;;
59109;SDS011;44895;47.438;18.978;2023-08-06T04:34:07;7.72;;;2.72;;
59109;SDS011;44895;47.438;18.978;2023-08-06T04:37:13;6.25;;;2.28;;
59109;SDS011;44895;47.438;18.978;2023-08-06T04:40:17;3.05;;;1.20;;
59109;SDS011;44895;47.438;18.978;2023-08-06T04:43:21;3.28;;;1.45;;
59109;SDS011;44895;47.438;18.978;2023-08-06T04:46:26;5.07;;;1.70;;
59109;SDS011;44895;47.438;18.978;2023-08-06T04:49:29;3.95;;;1.80;;
59109;SDS011;44895;47.438;18.978;2023-08-06T04:52:33;5.75;;;1.98;;
59109;SDS011;44895;47.438;18.978;2023-08-06T04:55:37;4.55;;;1.92;;
59109;SDS011;44895;47.438;18.978;2023-08-06T04:58:41;3.83;;;1.35;;
59109;SDS011;44895;47.438;18.978;2023-08-06T05:01:45;3.33;;;1.27;;
59109;SDS011;44895;47.438;18.978;2023-08-06T05:04:49;4.80;;;1.50;;
59109;SDS011;44895;47.438;18.978;2023-08-06T05:07:53;4.22;;;0.90;;
59109;SDS011;44895;47.438;18.978;2023-08-06T05:10:57;2.00;;;1.00;;
59109;SDS011;44895;47.438;18.978;2023-08-06T05:14:01;2.38;;;0.63;;
59109;SDS011;44895;47.438;18.978;2023-08-06T05:17:05;0.55;;;0.47;;
59109;SDS011;44895;47.438;18.978;2023-08-06T05:20:09;2.20;;;0.68;;
59109;SDS011;44895;47.438;18.978;2023-08-06T05:23:13;1.38;;;0.43;;
59109;SDS011;44895;47.438;18.978;2023-08-06T05:26:17;2.95;;;0.63;;
59109;SDS011;44895;47.438;18.978;2023-08-06T05:29:22;5.38;;;0.43;;
59109;SDS011;44895;47.438;18.978;2023-08-06T05:32:26;1.08;;;0.30;;
59109;SDS011;44895;47.438;18.978;2023-08-06T05:35:30;0.82;;;0.35;;
59109;SDS011;44895;47.438;18.978;2023-08-06T05:38:34;0.60;;;0.30;;
59109;SDS011;44895;47.438;18.978;2023-08-06T05:41:38;0.20;;;0.20;;
59109;SDS011;44895;47.438;18.978;2023-08-06T05:44:41;0.20;;;0.10;;
59109;SDS011;44895;47.438;18.978;2023-08-06T05:47:45;0.10;;;0.08;;
59109;SDS011;44895;47.438;18.978;2023-08-06T05:50:51;0.17;;;0.13;;
59109;SDS011;44895;47.438;18.978;2023-08-06T05:53:55;1.80;;;0.22;;
59109;SDS011;44895;47.438;18.978;2023-08-06T05:56:59;0.47;;;0.10;;
59109;SDS011;44895;47.438;18.978;2023-08-06T06:00:02;0.73;;;0.28;;
59109;SDS011;44895;47.438;18.978;2023-08-06T06:03:15;0.25;;;0.20;;
59109;SDS011;44895;47.438;18.978;2023-08-06T06:06:19;0.73;;;0.40;;
59109;SDS011;44895;47.438;18.978;2023-08-06T06:09:24;2.25;;;0.70;;
59109;SDS011;44895;47.438;18.978;2023-08-06T06:12:27;0.85;;;0.32;;
59109;SDS011;44895;47.438;18.978;2023-08-06T06:15:31;0.82;;;0.45;;
59109;SDS011;44895;47.438;18.978;2023-08-06T06:18:35;0.77;;;0.40;;
59109;SDS011;44895;47.438;18.978;2023-08-06T06:21:40;0.70;;;0.40;;
59109;SDS011;44895;47.438;18.978;2023-08-06T06:24:43;0.40;;;0.30;;
59109;SDS011;44895;47.438;18.978;2023-08-06T06:27:48;1.75;;;0.57;;
59109;SDS011;44895;47.438;18.978;2023-08-06T06:30:51;1.80;;;0.70;;
59109;SDS011;44895;47.438;18.978;2023-08-06T06:33:55;2.05;;;0.88;;
59109;SDS011;44895;47.438;18.978;2023-08-06T06:36:59;1.40;;;0.50;;
59109;SDS011;44895;47.438;18.978;2023-08-06T06:40:03;0.68;;;0.32;;
59109;SDS011;44895;47.438;18.978;2023-08-06T06:43:07;4.43;;;0.80;;
59109;SDS011;44895;47.438;18.978;2023-08-06T06:46:11;0.50;;;0.43;;
59109;SDS011;44895;47.438;18.978;2023-08-06T06:49:14;0.57;;;0.40;;
59109;SDS011;44895;47.438;18.978;2023-08-06T06:52:18;0.70;;;0.50;;
59109;SDS011;44895;47.438;18.978;2023-08-06T06:55:22;1.25;;;0.73;;
59109;SDS011;44895;47.438;18.978;2023-08-06T06:58:26;0.73;;;0.43;;
59109;SDS011;44895;47.438;18.978;2023-08-06T07:01:29;0.93;;;0.40;;
59109;SDS011;44895;47.438;18.978;2023-08-06T07:04:33;0.40;;;0.40;;
59109;SDS011;44895;47.438;18.978;2023-08-06T07:07:37;0.65;;;0.40;;
59109;SDS011;44895;47.438;18.978;2023-08-06T07:10:41;0.32;;;0.30;;
59109;SDS011;44895;47.438;18.978;2023-08-06T07:13:45;0.38;;;0.30;;
59109;SDS011;44895;47.438;18.978;2023-08-06T07:16:49;0.20;;;0.20;;
59109;SDS011;44895;47.438;18.978;2023-08-06T07:19:53;0.25;;;0.17;;
59109;SDS011;44895;47.438;18.978;2023-08-06T07:22:58;2.67;;;0.55;;
59109;SDS011;44895;47.438;18.978;2023-08-06T07:26:02;0.45;;;0.38;;
59109;SDS011;44895;47.438;18.978;2023-08-06T07:29:06;1.65;;;0.50;;
59109;SDS011;44895;47.438;18.978;2023-08-06T07:32:09;0.88;;;0.20;;
59109;SDS011;44895;47.438;18.978;2023-08-06T07:35:13;0.10;;;0.10;;
59109;SDS011;44895;47.438;18.978;2023-08-06T07:38:17;0.98;;;0.28;;
59109;SDS011;44895;47.438;18.978;2023-08-06T07:41:21;0.47;;;0.10;;
59109;SDS011;44895;47.438;18.978;2023-08-06T07:44:26;0.38;;;0.20;;
59109;SDS011;44895;47.438;18.978;2023-08-06T07:47:30;11.95;;;0.75;;
59109;SDS011;44895;47.438;18.978;2023-08-06T07:50:33;0.82;;;0.38;;
59109;SDS011;44895;47.438;18.978;2023-08-06T07:53:37;0.13;;;0.13;;
59109;SDS011;44895;47.438;18.978;2023-08-06T07:56:41;0.28;;;0.10;;
59109;SDS011;44895;47.438;18.978;2023-08-06T07:59:45;0.10;;;0.10;;
59109;SDS011;44895;47.438;18.978;2023-08-06T08:02:49;0.35;;;0.10;;
59109;SDS011;44895;47.438;18.978;2023-08-06T08:05:54;0.73;;;0.20;;
59109;SDS011;44895;47.438;18.978;2023-08-06T08:09:01;0.40;;;0.20;;
59109;SDS011;44895;47.438;18.978;2023-08-06T08:12:05;0.13;;;0.13;;
59109;SDS011;44895;47.438;18.978;2023-08-06T08:15:09;1.13;;;0.30;;
59109;SDS011;44895;47.438;18.978;2023-08-06T08:18:13;0.93;;;0.45;;
59109;SDS011;44895;47.438;18.978;2023-08-06T08:21:16;0.80;;;0.50;;
59109;SDS011;44895;47.438;18.978;2023-08-06T08:24:21;2.22;;;0.40;;
59109;SDS011;44895;47.438;18.978;2023-08-06T08:27:27;0.50;;;0.28;;
59109;SDS011;44895;47.438;18.978;2023-08-06T08:30:30;1.42;;;0.28;;
59109;SDS011;44895;47.438;18.978;2023-08-06T08:33:34;0.10;;;0.10;;
59109;SDS011;44895;47.438;18.978;2023-08-06T08:36:38;0.20;;;0.20;;
59109;SDS011;44895;47.438;18.978;2023-08-06T08:39:42;1.33;;;0.45;;
59109;SDS011;44895;47.438;18.978;2023-08-06T08:42:45;0.75;;;0.40;;
59109;SDS011;44895;47.438;18.978;2023-08-06T08:45:50;0.40;;;0.25;;
59109;SDS011;44895;47.438;18.978;2023-08-06T08:48:54;0.30;;;0.30;;
59109;SDS011;44895;47.438;18.978;2023-08-06T08:52:01;1.13;;;0.40;;
59109;SDS011;44895;47.438;18.978;2023-08-06T08:55:06;0.60;;;0.20;;
59109;SDS011;44895;47.438;18.978;2023-08-06T08:58:11;0.75;;;0.35;;
59109;SDS011;44895;47.438;18.978;2023-08-06T09:01:15;0.70;;;0.30;;
59109;SDS011;44895;47.438;18.978;2023-08-06T09:04:19;0.20;;;0.20;;
59109;SDS011;44895;47.438;18.978;2023-08-06T09:07:24;1.27;;;0.40;;
59109;SDS011;44895;47.438;18.978;2023-08-06T09:10:28;1.00;;;0.45;;
59109;SDS011;44895;47.438;18.978;2023-08-06T09:13:31;2.60;;;0.55;;
59109;SDS011;44895;47.438;18.978;2023-08-06T09:16:35;1.33;;;0.50;;
59109;SDS011;44895;47.438;18.978;2023-08-06T09:19:42;1.55;;;0.70;;
59109;SDS011;44895;47.438;18.978;2023-08-06T09:22:52;1.75;;;0.80;;
59109;SDS011;44895;47.438;18.978;2023-08-06T09:25:57;1.58;;;0.73;;
59109;SDS011;44895;47.438;18.978;2023-08-06T09:29:01;2.00;;;0.98;;
59109;SDS011;44895;47.438;18.978;2023-08-06T09:32:05;2.20;;;1.02;;
59109;SDS011;44895;47.438;18.978;2023-08-06T09:35:13;1.42;;;0.93;;
59109;SDS011;44895;47.438;18.978;2023-08-06T09:38:18;1.38;;;0.80;;
59109;SDS011;44895;47.438;18.978;2023-08-06T09:41:26;1.65;;;0.70;;
59109;SDS011;44895;47.438;18.978;2023-08-06T09:44:32;2.45;;;0.65;;
59109;SDS011;44895;47.438;18.978;2023-08-06T09:47:36;1.55;;;0.80;;
59109;SDS011;44895;47.438;18.978;2023-08-06T09:50:40;1.58;;;0.85;;
59109;SDS011;44895;47.438;18.978;2023-08-06T09:53:45;2.65;;;1.13;;
59109;SDS011;44895;47.438;18.978;2023-08-06T09:56:52;1.13;;;0.50;;
59109;SDS011;44895;47.438;18.978;2023-08-06T09:59:56;1.90;;;0.60;;
59109;SDS011;44895;47.438;18.978;2023-08-06T10:03:00;2.17;;;0.75;;
59109;SDS011;44895;47.438;18.978;2023-08-06T10:06:04;1.05;;;0.65;;
59109;SDS011;44895;47.438;18.978;2023-08-06T10:09:11;0.88;;;0.40;;
59109;SDS011;44895;47.438;18.978;2023-08-06T10:12:15;0.65;;;0.35;;
59109;SDS011;44895;47.438;18.978;2023-08-06T10:15:26;1.67;;;0.50;;
59109;SDS011;44895;47.438;18.978;2023-08-06T10:18:33;1.20;;;0.57;;
59109;SDS011;44895;47.438;18.978;2023-08-06T10:21:40;1.13;;;0.65;;
59109;SDS011;44895;47.438;18.978;2023-08-06T10:24:54;0.93;;;0.32;;
59109;SDS011;44895;47.438;18.978;2023-08-06T10:27:59;2.25;;;0.93;;
59109;SDS011;44895;47.438;18.978;2023-08-06T10:31:03;0.90;;;0.40;;
59109;SDS011;44895;47.438;18.978;2023-08-06T10:34:09;1.42;;;0.43;;
59109;SDS011;44895;47.438;18.978;2023-08-06T10:37:15;0.30;;;0.30;;
59109;SDS011;44895;47.438;18.978;2023-08-06T10:40:21;1.70;;;0.50;;
59109;SDS011;44895;47.438;18.978;2023-08-06T10:46:31;1.15;;;0.40;;
59109;SDS011;44895;47.438;18.978;2023-08-06T10:49:35;1.90;;;0.50;;
59109;SDS011;44895;47.438;18.978;2023-08-06T10:52:39;1.15;;;0.65;;
59109;SDS011;44895;47.438;18.978;2023-08-06T10:55:43;0.63;;;0.45;;
59109;SDS011;44895;47.438;18.978;2023-08-06T10:58:46;1.20;;;0.60;;
59109;SDS011;44895;47.438;18.978;2023-08-06T11:01:50;1.90;;;0.68;;
59109;SDS011;44895;47.438;18.978;2023-08-06T11:04:55;2.65;;;0.85;;
59109;SDS011;44895;47.438;18.978;2023-08-06T11:07:59;1.65;;;0.80;;
59109;SDS011;44895;47.438;18.978;2023-08-06T11:11:10;1.65;;;0.75;;
59109;SDS011;44895;47.438;18.978;2023-08-06T11:14:16;0.88;;;0.60;;
59109;SDS011;44895;47.438;18.978;2023-08-06T11:17:20;2.03;;;0.68;;
59109;SDS011;44895;47.438;18.978;2023-08-06T11:20:23;2.70;;;0.80;;
59109;SDS011;44895;47.438;18.978;2023-08-06T11:23:28;0.77;;;0.50;;
59109;SDS011;44895;47.438;18.978;2023-08-06T11:26:34;1.77;;;0.85;;
59109;SDS011;44895;47.438;18.978;2023-08-06T11:29:40;2.10;;;0.70;;
59109;SDS011;44895;47.438;18.978;2023-08-06T11:32:45;2.97;;;1.02;;
59109;SDS011;44895;47.438;18.978;2023-08-06T11:35:50;2.08;;;0.80;;
59109;SDS011;44895;47.438;18.978;2023-08-06T11:38:54;1.02;;;0.47;;
59109;SDS011;44895;47.438;18.978;2023-08-06T11:41:57;1.30;;;0.70;;
59109;SDS011;44895;47.438;18.978;2023-08-06T11:45:03;2.45;;;0.98;;
59109;SDS011;44895;47.438;18.978;2023-08-06T11:48:07;2.55;;;0.80;;
59109;SDS011;44895;47.438;18.978;2023-08-06T11:51:14;2.80;;;0.95;;
59109;SDS011;44895;47.438;18.978;2023-08-06T11:54:30;0.98;;;0.50;;
59109;SDS011;44895;47.438;18.978;2023-08-06T11:57:37;4.00;;;0.47;;
59109;SDS011;44895;47.438;18.978;2023-08-06T12:00:43;1.67;;;0.75;;
59109;SDS011;44895;47.438;18.978;2023-08-06T12:03:46;1.38;;;0.68;;
59109;SDS011;44895;47.438;18.978;2023-08-06T12:06:50;2.13;;;0.80;;
59109;SDS011;44895;47.438;18.978;2023-08-06T12:09:55;2.30;;;0.50;;
59109;SDS011;44895;47.438;18.978;2023-08-06T12:12:59;2.17;;;0.90;;
59109;SDS011;44895;47.438;18.978;2023-08-06T12:16:03;1.35;;;0.50;;
59109;SDS011;44895;47.438;18.978;2023-08-06T12:19:07;2.03;;;0.70;;
59109;SDS011;44895;47.438;18.978;2023-08-06T12:22:11;2.00;;;0.70;;
59109;SDS011;44895;47.438;18.978;2023-08-06T12:25:14;1.08;;;0.52;;
59109;SDS011;44895;47.438;18.978;2023-08-06T12:28:18;2.63;;;0.70;;
59109;SDS011;44895;47.438;18.978;2023-08-06T12:31:22;1.27;;;0.50;;
59109;SDS011;44895;47.438;18.978;2023-08-06T12:34:25;3.50;;;0.90;;
59109;SDS011;44895;47.438;18.978;2023-08-06T12:37:29;1.15;;;0.50;;
59109;SDS011;44895;47.438;18.978;2023-08-06T12:40:33;4.30;;;0.73;;
59109;SDS011;44895;47.438;18.978;2023-08-06T12:43:37;1.23;;;0.50;;
59109;SDS011;44895;47.438;18.978;2023-08-06T12:46:41;3.33;;;0.85;;
59109;SDS011;44895;47.438;18.978;2023-08-06T12:49:45;2.45;;;0.88;;
59109;SDS011;44895;47.438;18.978;2023-08-06T12:52:49;1.55;;;0.73;;
59109;SDS011;44895;47.438;18.978;2023-08-06T12:55:52;2.10;;;0.85;;
59109;SDS011;44895;47.438;18.978;2023-08-06T12:58:56;1.20;;;0.60;;
59109;SDS011;44895;47.438;18.978;2023-08-06T13:02:00;2.92;;;0.73;;
59109;SDS011;44895;47.438;18.978;2023-08-06T13:05:04;1.60;;;0.65;;
59109;SDS011;44895;47.438;18.978;2023-08-06T13:08:09;0.45;;;0.45;;
59109;SDS011;44895;47.438;18.978;2023-08-06T13:11:14;1.77;;;0.85;;
59109;SDS011;44895;47.438;18.978;2023-08-06T13:14:18;1.75;;;0.65;;
59109;SDS011;44895;47.438;18.978;2023-08-06T13:17:23;2.08;;;0.73;;
59109;SDS011;44895;47.438;18.978;2023-08-06T13:20:30;3.42;;;1.13;;
59109;SDS011;44895;47.438;18.978;2023-08-06T13:23:34;3.47;;;1.03;;
59109;SDS011;44895;47.438;18.978;2023-08-06T13:26:38;1.55;;;0.85;;
59109;SDS011;44895;47.438;18.978;2023-08-06T13:29:42;2.60;;;1.15;;
59109;SDS011;44895;47.438;18.978;2023-08-06T13:32:46;3.28;;;1.17;;
59109;SDS011;44895;47.438;18.978;2023-08-06T13:35:50;2.85;;;1.02;;
59109;SDS011;44895;47.438;18.978;2023-08-06T13:38:54;2.75;;;1.25;;
59109;SDS011;44895;47.438;18.978;2023-08-06T13:41:59;2.30;;;1.05;;
59109;SDS011;44895;47.438;18.978;2023-08-06T13:45:04;3.40;;;1.33;;
59109;SDS011;44895;47.438;18.978;2023-08-06T13:48:09;2.67;;;1.02;;
59109;SDS011;44895;47.438;18.978;2023-08-06T13:51:14;1.98;;;1.20;;
59109;SDS011;44895;47.438;18.978;2023-08-06T13:54:18;2.47;;;1.15;;
59109;SDS011;44895;47.438;18.978;2023-08-06T13:57:24;5.85;;;1.30;;
59109;SDS011;44895;47.438;18.978;2023-08-06T14:00:28;4.35;;;1.48;;
59109;SDS011;44895;47.438;18.978;2023-08-06T14:03:34;3.78;;;1.50;;
59109;SDS011;44895;47.438;18.978;2023-08-06T14:06:38;1.67;;;0.85;;
59109;SDS011;44895;47.438;18.978;2023-08-06T14:09:42;3.20;;;1.40;;
59109;SDS011;44895;47.438;18.978;2023-08-06T14:12:47;3.05;;;1.33;;
59109;SDS011;44895;47.438;18.978;2023-08-06T14:15:51;2.42;;;1.20;;
59109;SDS011;44895;47.438;18.978;2023-08-06T14:18:56;3.70;;;1.27;;
59109;SDS011;44895;47.438;18.978;2023-08-06T14:22:00;5.97;;;1.85;;
59109;SDS011;44895;47.438;18.978;2023-08-06T14:25:04;5.85;;;1.55;;
59109;SDS011;44895;47.438;18.978;2023-08-06T14:28:10;2.25;;;0.90;;
59109;SDS011;44895;47.438;18.978;2023-08-06T14:31:14;3.47;;;1.52;;
59109;SDS011;44895;47.438;18.978;2023-08-06T14:34:19;4.85;;;1.50;;
59109;SDS011;44895;47.438;18.978;2023-08-06T14:37:23;4.53;;;1.58;;
59109;SDS011;44895;47.438;18.978;2023-08-06T14:40:27;5.95;;;1.85;;
59109;SDS011;44895;47.438;18.978;2023-08-06T14:43:37;3.30;;;1.35;;
59109;SDS011;44895;47.438;18.978;2023-08-06T14:46:42;4.25;;;1.55;;
59109;SDS011;44895;47.438;18.978;2023-08-06T14:49:46;3.88;;;1.45;;
59109;SDS011;44895;47.438;18.978;2023-08-06T14:52:51;3.53;;;1.50;;
59109;SDS011;44895;47.438;18.978;2023-08-06T14:55:56;2.92;;;1.35;;
59109;SDS011;44895;47.438;18.978;2023-08-06T14:59:00;4.00;;;1.88;;
59109;SDS011;44895;47.438;18.978;2023-08-06T15:02:05;3.70;;;1.48;;
59109;SDS011;44895;47.438;18.978;2023-08-06T15:05:09;4.35;;;1.55;;
59109;SDS011;44895;47.438;18.978;2023-08-06T15:08:15;4.05;;;2.05;;
59109;SDS011;44895;47.438;18.978;2023-08-06T15:11:20;2.10;;;1.10;;
59109;SDS011;44895;47.438;18.978;2023-08-06T15:14:24;2.90;;;1.15;;
59109;SDS011;44895;47.438;18.978;2023-08-06T15:17:28;4.28;;;1.27;;
59109;SDS011;44895;47.438;18.978;2023-08-06T15:20:33;7.18;;;1.70;;
59109;SDS011;44895;47.438;18.978;2023-08-06T15:23:40;2.92;;;1.25;;
59109;SDS011;44895;47.438;18.978;2023-08-06T15:26:43;2.15;;;0.95;;
59109;SDS011;44895;47.438;18.978;2023-08-06T15:29:47;3.30;;;1.10;;
59109;SDS011;44895;47.438;18.978;2023-08-06T15:32:51;6.10;;;1.63;;
59109;SDS011;44895;47.438;18.978;2023-08-06T15:35:56;4.45;;;1.20;;
59109;SDS011;44895;47.438;18.978;2023-08-06T15:39:01;3.58;;;1.30;;
59109;SDS011;44895;47.438;18.978;2023-08-06T15:42:07;4.50;;;1.23;;
59109;SDS011;44895;47.438;18.978;2023-08-06T15:45:11;3.92;;;1.17;;
59109;SDS011;44895;47.438;18.978;2023-08-06T15:48:16;2.33;;;1.10;;
59109;SDS011;44895;47.438;18.978;2023-08-06T15:51:20;2.65;;;1.27;;
59109;SDS011;44895;47.438;18.978;2023-08-06T15:54:24;5.07;;;1.60;;
59109;SDS011;44895;47.438;18.978;2023-08-06T15:57:28;1.85;;;1.00;;
59109;SDS011;44895;47.438;18.978;2023-08-06T16:00:33;3.92;;;1.58;;
59109;SDS011;44895;47.438;18.978;2023-08-06T16:03:37;2.47;;;0.90;;
59109;SDS011;44895;47.438;18.978;2023-08-06T16:06:43;3.37;;;1.20;;
59109;SDS011;44895;47.438;18.978;2023-08-06T16:09:48;2.47;;;0.95;;
59109;SDS011;44895;47.438;18.978;2023-08-06T16:12:52;2.50;;;1.10;;
59109;SDS011;44895;47.438;18.978;2023-08-06T16:15:56;2.63;;;1.17;;
59109;SDS011;44895;47.438;18.978;2023-08-06T16:19:01;2.47;;;1.00;;
59109;SDS011;44895;47.438;18.978;2023-08-06T16:22:06;2.00;;;0.88;;
59109;SDS011;44895;47.438;18.978;2023-08-06T16:25:12;4.43;;;1.25;;
59109;SDS011;44895;47.438;18.978;2023-08-06T16:28:16;2.65;;;1.10;;
59109;SDS011;44895;47.438;18.978;2023-08-06T16:31:21;2.80;;;1.23;;
59109;SDS011;44895;47.438;18.978;2023-08-06T16:34:25;2.65;;;1.00;;
59109;SDS011;44895;47.438;18.978;2023-08-06T16:37:29;3.55;;;1.15;;
59109;SDS011;44895;47.438;18.978;2023-08-06T16:40:34;5.63;;;1.00;;
59109;SDS011;44895;47.438;18.978;2023-08-06T16:43:38;2.65;;;1.15;;
59109;SDS011;44895;47.438;18.978;2023-08-06T16:46:42;3.08;;;1.00;;
59109;SDS011;44895;47.438;18.978;2023-08-06T16:49:46;2.05;;;1.00;;
59109;SDS011;44895;47.438;18.978;2023-08-06T16:52:51;2.78;;;1.10;;
59109;SDS011;44895;47.438;18.978;2023-08-06T16:55:55;6.15;;;0.98;;
59109;SDS011;44895;47.438;18.978;2023-08-06T16:59:02;3.72;;;1.23;;
59109;SDS011;44895;47.438;18.978;2023-08-06T17:02:07;2.10;;;0.98;;
59109;SDS011;44895;47.438;18.978;2023-08-06T17:05:11;2.83;;;1.17;;
59109;SDS011;44895;47.438;18.978;2023-08-06T17:08:15;3.05;;;1.45;;
59109;SDS011;44895;47.438;18.978;2023-08-06T17:11:19;4.43;;;1.30;;
59109;SDS011;44895;47.438;18.978;2023-08-06T17:14:23;2.53;;;0.98;;
59109;SDS011;44895;47.438;18.978;2023-08-06T17:17:26;2.10;;;0.80;;
59109;SDS011;44895;47.438;18.978;2023-08-06T17:20:30;3.80;;;1.00;;
59109;SDS011;44895;47.438;18.978;2023-08-06T17:23:36;2.13;;;0.95;;
59109;SDS011;44895;47.438;18.978;2023-08-06T17:26:40;2.80;;;1.10;;
59109;SDS011;44895;47.438;18.978;2023-08-06T17:29:44;4.03;;;1.27;;
59109;SDS011;44895;47.438;18.978;2023-08-06T17:32:50;1.25;;;0.60;;
59109;SDS011;44895;47.438;18.978;2023-08-06T17:35:54;1.73;;;0.70;;
59109;SDS011;44895;47.438;18.978;2023-08-06T17:38:57;4.30;;;1.90;;
59109;SDS011;44895;47.438;18.978;2023-08-06T17:42:02;2.15;;;0.80;;
59109;SDS011;44895;47.438;18.978;2023-08-06T17:45:13;7.00;;;2.17;;
59109;SDS011;44895;47.438;18.978;2023-08-06T17:48:18;2.08;;;0.88;;
59109;SDS011;44895;47.438;18.978;2023-08-06T17:51:23;3.47;;;1.25;;
59109;SDS011;44895;47.438;18.978;2023-08-06T17:54:27;3.00;;;1.00;;
59109;SDS011;44895;47.438;18.978;2023-08-06T17:57:31;3.13;;;0.90;;
59109;SDS011;44895;47.438;18.978;2023-08-06T18:00:35;3.75;;;1.02;;
59109;SDS011;44895;47.438;18.978;2023-08-06T18:03:39;1.17;;;0.55;;
59109;SDS011;44895;47.438;18.978;2023-08-06T18:06:43;2.20;;;0.80;;
59109;SDS011;44895;47.438;18.978;2023-08-06T18:09:48;2.20;;;0.90;;
59109;SDS011;44895;47.438;18.978;2023-08-06T18:12:52;3.10;;;1.23;;
59109;SDS011;44895;47.438;18.978;2023-08-06T18:15:56;4.32;;;1.10;;
59109;SDS011;44895;47.438;18.978;2023-08-06T18:19:00;1.92;;;0.80;;
59109;SDS011;44895;47.438;18.978;2023-08-06T18:22:05;3.08;;;1.30;;
59109;SDS011;44895;47.438;18.978;2023-08-06T18:25:08;2.30;;;0.82;;
59109;SDS011;44895;47.438;18.978;2023-08-06T18:28:13;2.72;;;1.00;;
59109;SDS011;44895;47.438;18.978;2023-08-06T18:31:16;3.10;;;1.13;;
59109;SDS011;44895;47.438;18.978;2023-08-06T18:34:21;4.10;;;1.50;;
59109;SDS011;44895;47.438;18.978;2023-08-06T18:37:25;2.65;;;1.00;;